Time;durP1;ratioP1;P1;durP2;ratioP2;P2;SDS_P1;SDS_P2;PMS_P1;PMS_P2;Temp;Humidity;BMP_temperature;BMP_pressure;BME280_temperature;BME280_humidity;BME280_pressure;Samples;Min_cycle;Max_cycle;Signal;HPM_P1;HPM_P2
2021/03/02 00:00:05;;;;;;;7.05;3.70;;;23.40;43.90;;;;;;5005599;28;20069;-64
2021/03/02 00:02:31;;;;;;;6.97;4.07;;;23.40;43.80;;;;;;5004116;28;20323;-62
2021/03/02 00:04:57;;;;;;;6.65;3.70;;;23.40;43.80;;;;;;5008296;28;20030;-61
2021/03/02 00:07:26;;;;;;;6.93;3.72;;;23.40;43.80;;;;;;5007954;28;20021;-64
2021/03/02 00:09:53;;;;;;;5.88;3.40;;;23.30;43.80;;;;;;5008762;28;20038;-62
2021/03/02 00:12:19;;;;;;;6.85;3.90;;;23.30;43.80;;;;;;5004185;28;20182;-63
2021/03/02 00:14:45;;;;;;;6.30;3.67;;;23.30;43.80;;;;;;5008032;28;20054;-65
2021/03/02 00:17:19;;;;;;;6.97;3.70;;;23.30;43.80;;;;;;5001038;28;20168;-64
2021/03/02 00:19:53;;;;;;;5.68;3.75;;;23.30;43.90;;;;;;5006480;28;20092;-63
2021/03/02 00:22:24;;;;;;;6.20;3.78;;;23.30;43.90;;;;;;5008014;28;20022;-63
2021/03/02 00:24:54;;;;;;;9.57;4.20;;;23.30;43.90;;;;;;4999433;28;20030;-61
2021/03/02 00:27:23;;;;;;;7.88;3.83;;;23.30;43.90;;;;;;5009070;28;20030;-64
2021/03/02 00:29:49;;;;;;;6.53;3.83;;;23.30;43.90;;;;;;5008470;28;20025;-61
2021/03/02 00:32:19;;;;;;;6.90;3.70;;;23.20;43.90;;;;;;5005932;28;20046;-63
2021/03/02 00:34:45;;;;;;;6.13;3.63;;;23.20;43.90;;;;;;5008053;28;20105;-64
2021/03/02 00:37:11;;;;;;;6.10;3.50;;;23.20;43.90;;;;;;5007194;28;20037;-61
2021/03/02 00:39:37;;;;;;;6.35;3.78;;;23.20;43.90;;;;;;5007881;28;20025;-61
2021/03/02 00:42:03;;;;;;;7.47;3.85;;;23.20;43.90;;;;;;5023631;28;20049;-62
2021/03/02 00:44:29;;;;;;;5.65;3.25;;;23.10;43.80;;;;;;5007446;28;20121;-62
2021/03/02 00:46:54;;;;;;;5.38;3.50;;;23.10;43.90;;;;;;5006051;28;20744;-65
2021/03/02 00:49:20;;;;;;;6.03;3.60;;;23.10;43.90;;;;;;5005577;28;20053;-61
2021/03/02 00:51:45;;;;;;;5.82;3.22;;;23.10;43.90;;;;;;5004657;28;20108;-64
2021/03/02 00:54:11;;;;;;;6.57;3.40;;;23.10;43.90;;;;;;5009318;28;20105;-61
2021/03/02 00:56:37;;;;;;;5.93;3.33;;;23.10;43.90;;;;;;5008837;28;20762;-61
2021/03/02 00:59:02;;;;;;;4.38;2.95;;;23.10;43.90;;;;;;5005787;28;20030;-61
2021/03/02 01:01:28;;;;;;;6.43;3.55;;;23.10;43.90;;;;;;5003585;28;20057;-63
2021/03/02 01:03:54;;;;;;;7.22;3.40;;;23.10;43.90;;;;;;5007087;28;20034;-61
2021/03/02 01:06:19;;;;;;;5.03;3.00;;;23.10;43.90;;;;;;5007123;28;20840;-61
2021/03/02 01:08:45;;;;;;;5.53;3.33;;;23.00;43.90;;;;;;5006117;28;20053;-61
2021/03/02 01:11:11;;;;;;;5.93;3.10;;;23.00;43.90;;;;;;5007943;28;20112;-62
2021/03/02 01:13:36;;;;;;;5.22;3.08;;;23.00;43.90;;;;;;5004307;28;20056;-63
2021/03/02 01:16:02;;;;;;;4.97;3.00;;;23.00;44.00;;;;;;5008032;28;20025;-62
2021/03/02 01:18:28;;;;;;;7.82;3.85;;;23.00;44.00;;;;;;4999384;28;20029;-62
2021/03/02 01:20:54;;;;;;;4.85;2.80;;;23.00;44.00;;;;;;5008689;28;20044;-62
2021/03/02 01:23:20;;;;;;;4.95;2.97;;;23.00;44.00;;;;;;5006894;28;20128;-64
2021/03/02 01:25:46;;;;;;;5.07;3.08;;;22.90;43.90;;;;;;5009046;28;20444;-62
2021/03/02 01:28:11;;;;;;;5.13;3.03;;;22.90;44.00;;;;;;5006265;28;20030;-62
2021/03/02 01:30:37;;;;;;;5.45;3.33;;;22.90;44.00;;;;;;5006129;28;20034;-60
2021/03/02 01:33:03;;;;;;;5.47;3.25;;;22.90;44.00;;;;;;5006350;28;20030;-61
2021/03/02 01:35:28;;;;;;;4.75;2.75;;;22.90;44.00;;;;;;5007102;28;20034;-63
2021/03/02 01:37:54;;;;;;;4.60;2.83;;;22.90;44.00;;;;;;5004207;28;20117;-64
2021/03/02 01:40:20;;;;;;;4.35;2.60;;;22.90;44.00;;;;;;5007285;28;20057;-60
2021/03/02 01:42:46;;;;;;;4.63;2.92;;;22.90;44.10;;;;;;5007156;28;20040;-61
2021/03/02 01:45:14;;;;;;;5.25;3.05;;;22.80;44.00;;;;;;5007302;28;20073;-63
2021/03/02 01:47:41;;;;;;;5.40;3.03;;;22.80;44.00;;;;;;5000466;28;20527;-63
2021/03/02 01:50:09;;;;;;;4.97;2.83;;;22.80;44.00;;;;;;5005446;28;20479;-66
2021/03/02 01:52:35;;;;;;;4.07;2.80;;;22.80;44.00;;;;;;5007182;28;20188;-60
2021/03/02 01:55:04;;;;;;;3.78;2.70;;;22.80;44.00;;;;;;5006858;28;20030;-61
2021/03/02 01:57:30;;;;;;;5.55;2.90;;;22.80;44.60;;;;;;5004657;28;20033;-63
2021/03/02 01:59:55;;;;;;;4.35;2.55;;;22.80;44.00;;;;;;5006518;28;20034;-61
2021/03/02 02:02:34;;;;;;;6.00;3.10;;;22.80;44.10;;;;;;5001729;28;20069;-62
2021/03/02 02:05:01;;;;;;;4.47;2.78;;;22.70;44.00;;;;;;5005789;28;20036;-61
2021/03/02 02:07:38;;;;;;;4.45;2.67;;;22.80;44.10;;;;;;5006577;28;20072;-62
2021/03/02 02:10:21;;;;;;;4.70;2.80;;;22.70;44.10;;;;;;4998381;28;20051;-66
2021/03/02 02:13:18;;;;;;;4.07;2.35;;;22.70;44.10;;;;;;5002283;28;20065;-64
2021/03/02 02:15:46;;;;;;;4.88;3.03;;;22.70;44.10;;;;;;5004076;28;20557;-61
2021/03/02 02:18:17;;;;;;;4.63;2.70;;;22.70;44.10;;;;;;5002024;28;20518;-61
2021/03/02 02:20:47;;;;;;;4.45;2.83;;;22.70;44.10;;;;;;5002209;28;20045;-62
2021/03/02 02:23:34;;;;;;;4.60;2.70;;;22.70;44.10;;;;;;5006263;28;20037;-60
2021/03/02 02:26:24;;;;;;;4.53;2.63;;;22.70;44.20;;;;;;5003951;28;20504;-64
2021/03/02 02:28:51;;;;;;;5.35;2.72;;;22.60;44.10;;;;;;5000071;28;20040;-61
2021/03/02 02:31:19;;;;;;;4.70;2.67;;;22.60;44.20;;;;;;5005803;28;20061;-63
2021/03/02 02:33:46;;;;;;;4.47;2.65;;;22.60;44.20;;;;;;5006835;28;20041;-62
2021/03/02 02:36:16;;;;;;;4.20;2.53;;;22.60;44.20;;;;;;5005866;28;20400;-65
2021/03/02 02:38:46;;;;;;;4.85;2.83;;;22.60;44.20;;;;;;4999291;28;20771;-62
2021/03/02 02:41:12;;;;;;;4.57;2.75;;;22.60;44.20;;;;;;5005483;28;20587;-60
2021/03/02 02:43:39;;;;;;;4.60;2.78;;;22.60;44.20;;;;;;5005586;28;20030;-62
2021/03/02 02:46:06;;;;;;;4.80;2.97;;;22.60;44.20;;;;;;5006990;28;20040;-64
2021/03/02 02:48:32;;;;;;;4.35;2.35;;;22.60;44.20;;;;;;5003805;28;20418;-61
2021/03/02 02:50:58;;;;;;;4.18;2.78;;;22.50;44.20;;;;;;5002706;28;20127;-60
2021/03/02 02:53:24;;;;;;;3.85;2.60;;;22.50;44.20;;;;;;5003419;28;20037;-61
2021/03/02 02:55:55;;;;;;;4.38;2.72;;;22.50;44.20;;;;;;5008429;28;20061;-62
2021/03/02 02:58:28;;;;;;;4.75;2.60;;;22.50;44.20;;;;;;5004622;28;20092;-63
2021/03/02 03:00:56;;;;;;;5.18;2.92;;;22.50;44.20;;;;;;5002567;28;20034;-61
2021/03/02 03:03:25;;;;;;;4.22;2.40;;;22.50;44.30;;;;;;5005589;28;20112;-61
2021/03/02 03:05:58;;;;;;;5.30;2.92;;;22.50;44.30;;;;;;5003210;28;20078;-62
2021/03/02 03:08:31;;;;;;;4.38;2.72;;;22.40;44.30;;;;;;5003962;28;20113;-61
2021/03/02 03:10:59;;;;;;;5.05;2.72;;;22.40;44.30;;;;;;5003820;28;20093;-61
2021/03/02 03:13:28;;;;;;;4.57;2.50;;;22.40;44.30;;;;;;5004988;28;20084;-65
2021/03/02 03:15:59;;;;;;;4.47;2.80;;;22.40;44.30;;;;;;4991375;28;20026;-60
2021/03/02 03:18:30;;;;;;;3.92;2.50;;;22.40;44.30;;;;;;5002555;28;20049;-63
2021/03/02 03:20:59;;;;;;;4.55;2.60;;;22.40;44.30;;;;;;5004899;28;20038;-62
2021/03/02 03:23:25;;;;;;;4.07;2.50;;;22.40;44.30;;;;;;4998609;28;20023;-62
2021/03/02 03:25:52;;;;;;;3.95;2.40;;;22.40;44.40;;;;;;5004944;28;20029;-62
2021/03/02 03:28:19;;;;;;;4.45;2.40;;;22.40;44.40;;;;;;5002391;28;20462;-61
2021/03/02 03:30:46;;;;;;;3.70;2.25;;;22.40;44.40;;;;;;4999913;28;20030;-62
2021/03/02 03:33:14;;;;;;;4.70;2.40;;;22.40;44.40;;;;;;5003747;28;20040;-61
2021/03/02 03:35:41;;;;;;;4.30;2.38;;;22.30;44.30;;;;;;5005331;28;20045;-64
2021/03/02 03:38:07;;;;;;;4.55;2.50;;;22.30;44.40;;;;;;5004835;28;20109;-61
2021/03/02 03:40:34;;;;;;;4.40;2.20;;;22.30;44.30;;;;;;5004291;28;20066;-62
2021/03/02 03:43:00;;;;;;;3.80;2.28;;;22.30;44.40;;;;;;5003523;28;20575;-62
2021/03/02 03:45:25;;;;;;;3.60;2.13;;;22.30;44.40;;;;;;5006978;28;20044;-60
2021/03/02 03:47:51;;;;;;;3.92;2.17;;;22.30;44.40;;;;;;5002276;28;20112;-60
2021/03/02 03:50:17;;;;;;;3.60;2.38;;;22.30;44.40;;;;;;5003170;28;20041;-61
2021/03/02 03:52:49;;;;;;;3.92;2.30;;;22.30;44.50;;;;;;5004933;28;20998;-64
2021/03/02 03:55:19;;;;;;;3.97;2.30;;;22.30;44.50;;;;;;5000272;28;20042;-63
2021/03/02 03:57:46;;;;;;;3.30;2.20;;;22.30;44.50;;;;;;5005513;28;20030;-62
2021/03/02 04:00:13;;;;;;;3.65;2.20;;;22.30;44.50;;;;;;5002567;28;20029;-63
2021/03/02 04:02:39;;;;;;;3.88;2.38;;;22.20;44.50;;;;;;5002950;28;20338;-61
2021/03/02 04:05:06;;;;;;;4.05;2.35;;;22.20;44.50;;;;;;5004432;28;20026;-65
2021/03/02 04:07:36;;;;;;;4.47;2.45;;;22.20;44.50;;;;;;5005137;28;20156;-61
2021/03/02 04:10:07;;;;;;;3.50;2.03;;;22.20;44.50;;;;;;5005134;28;20069;-62
2021/03/02 04:12:41;;;;;;;3.40;2.30;;;22.20;44.50;;;;;;5000613;28;20065;-61
2021/03/02 04:15:11;;;;;;;3.78;2.30;;;22.20;44.50;;;;;;5004199;28;20128;-62
2021/03/02 04:17:37;;;;;;;3.10;2.00;;;22.20;44.50;;;;;;5002260;28;20042;-62
2021/03/02 04:20:05;;;;;;;3.60;2.20;;;22.20;44.50;;;;;;5008598;28;20025;-61
2021/03/02 04:22:35;;;;;;;3.15;2.00;;;22.20;45.10;;;;;;5008663;28;20045;-61
2021/03/02 04:25:05;;;;;;;4.05;2.35;;;22.20;44.60;;;;;;5010072;28;20034;-62
2021/03/02 04:27:30;;;;;;;;;;;22.20;44.60;;;;;;5009372;28;20072;-62
2021/03/02 04:29:56;;;;;;;3.83;2.03;;;22.20;44.60;;;;;;5002021;28;19949;-64
2021/03/02 04:32:22;;;;;;;3.55;2.13;;;22.10;44.50;;;;;;5007190;28;20037;-61
2021/03/02 04:34:48;;;;;;;3.50;2.15;;;22.20;44.60;;;;;;5009330;28;20049;-61
2021/03/02 04:37:13;;;;;;;3.13;1.98;;;22.10;44.60;;;;;;5002714;28;20056;-63
2021/03/02 04:39:39;;;;;;;3.80;2.00;;;22.10;44.60;;;;;;5008197;28;20032;-61
2021/03/02 04:42:05;;;;;;;3.85;2.05;;;22.20;44.60;;;;;;5006803;28;20034;-63
2021/03/02 04:44:31;;;;;;;3.65;2.00;;;22.10;44.60;;;;;;5006283;28;20034;-62
2021/03/02 04:46:57;;;;;;;3.50;2.13;;;22.10;44.60;;;;;;5008377;28;20033;-61
2021/03/02 04:49:23;;;;;;;4.65;2.10;;;22.10;44.60;;;;;;5008590;28;20022;-61
2021/03/02 04:51:49;;;;;;;2.85;1.90;;;22.10;44.60;;;;;;5003034;28;20537;-60
2021/03/02 04:54:15;;;;;;;3.08;2.10;;;22.10;44.60;;;;;;5008031;28;20100;-62
2021/03/02 04:56:40;;;;;;;3.22;1.95;;;22.10;44.60;;;;;;5009388;28;20037;-61
2021/03/02 04:59:06;;;;;;;3.25;2.00;;;22.10;44.60;;;;;;5006567;28;20488;-62
2021/03/02 05:01:33;;;;;;;3.08;1.90;;;22.10;44.60;;;;;;4997410;28;20034;-64
2021/03/02 05:03:59;;;;;;;2.72;1.80;;;22.10;44.60;;;;;;5006818;28;20029;-62
2021/03/02 05:06:25;;;;;;;3.08;1.95;;;22.10;44.60;;;;;;5009946;28;20030;-60
2021/03/02 05:08:51;;;;;;;3.33;2.15;;;22.10;44.60;;;;;;5006409;28;20071;-61
2021/03/02 05:11:17;;;;;;;3.25;1.80;;;22.10;44.70;;;;;;5004874;28;20030;-63
2021/03/02 05:13:43;;;;;;;3.55;2.20;;;22.00;44.60;;;;;;5007437;28;20061;-61
2021/03/02 05:16:09;;;;;;;2.92;1.80;;;22.00;44.60;;;;;;5008407;28;20026;-65
2021/03/02 05:18:35;;;;;;;3.40;2.13;;;22.00;44.60;;;;;;5005426;28;20038;-63
2021/03/02 05:21:01;;;;;;;2.88;1.63;;;22.00;44.70;;;;;;5006256;28;20091;-61
2021/03/02 05:23:27;;;;;;;3.53;1.88;;;22.10;44.80;;;;;;5007231;28;20535;-61
2021/03/02 05:25:52;;;;;;;3.55;2.10;;;22.00;44.70;;;;;;5007865;28;20030;-61
2021/03/02 05:28:18;;;;;;;3.78;2.10;;;22.00;44.70;;;;;;5002278;28;20388;-63
2021/03/02 05:30:44;;;;;;;3.40;2.20;;;22.00;44.70;;;;;;5007665;28;20026;-62
2021/03/02 05:33:09;;;;;;;3.63;2.15;;;22.00;44.70;;;;;;4996682;28;20094;-62
2021/03/02 05:35:35;;;;;;;3.30;2.03;;;22.00;44.80;;;;;;5006028;28;20048;-60
2021/03/02 05:38:00;;;;;;;3.35;1.98;;;22.00;44.80;;;;;;5005124;28;20029;-61
2021/03/02 05:40:26;;;;;;;3.53;1.90;;;22.00;44.80;;;;;;5007729;28;20368;-63
2021/03/02 05:42:52;;;;;;;3.80;2.10;;;22.00;44.80;;;;;;5007821;28;20132;-63
2021/03/02 05:45:18;;;;;;;3.90;2.10;;;22.00;44.80;;;;;;5008105;28;20048;-61
2021/03/02 05:47:44;;;;;;;2.83;1.75;;;22.00;44.80;;;;;;5005863;28;20045;-61
2021/03/02 05:50:11;;;;;;;3.38;2.10;;;22.00;44.90;;;;;;5005550;28;20087;-64
2021/03/02 05:52:36;;;;;;;2.58;1.60;;;22.00;44.90;;;;;;5006353;28;20487;-61
2021/03/02 05:55:02;;;;;;;3.05;2.00;;;22.00;44.90;;;;;;5006646;28;20034;-62
2021/03/02 05:57:29;;;;;;;3.30;1.90;;;22.00;44.90;;;;;;4994968;28;20041;-61
2021/03/02 05:59:55;;;;;;;3.47;1.88;;;21.90;44.90;;;;;;5007510;28;20026;-61
2021/03/02 06:02:21;;;;;;;2.95;1.73;;;21.90;44.90;;;;;;5005509;28;20338;-62
2021/03/02 06:04:50;;;;;;;3.50;2.00;;;22.00;45.00;;;;;;5008557;28;20062;-62
2021/03/02 06:07:16;;;;;;;3.95;1.85;;;21.90;44.90;;;;;;5006565;28;20152;-61
2021/03/02 06:09:42;;;;;;;2.85;1.75;;;21.90;44.90;;;;;;5006888;28;20117;-61
2021/03/02 06:12:07;;;;;;;2.75;1.67;;;21.90;44.90;;;;;;5006203;28;20028;-62
2021/03/02 06:14:36;;;;;;;3.47;1.60;;;21.90;45.00;;;;;;5006317;28;20026;-61
2021/03/02 06:17:03;;;;;;;2.95;1.73;;;21.90;45.20;;;;;;5007741;28;20057;-63
2021/03/02 06:19:48;;;;;;;2.92;1.83;;;21.90;45.00;;;;;;4992529;28;20121;-64
2021/03/02 06:22:33;;;;;;;3.15;1.90;;;21.90;45.00;;;;;;5004302;28;20046;-62
2021/03/02 06:25:00;;;;;;;3.28;1.80;;;21.90;45.00;;;;;;5006661;28;20025;-63
2021/03/02 06:27:26;;;;;;;3.10;2.00;;;21.90;45.00;;;;;;5001255;28;20113;-63
2021/03/02 06:30:12;;;;;;;2.90;1.80;;;21.90;45.00;;;;;;4996200;28;20408;-62
2021/03/02 06:32:44;;;;;;;2.58;1.65;;;21.90;45.00;;;;;;5002666;28;20080;-60
2021/03/02 06:35:11;;;;;;;3.15;1.90;;;21.90;45.00;;;;;;5007207;28;20370;-67
2021/03/02 06:37:44;;;;;;;2.65;1.60;;;21.90;45.00;;;;;;5005312;28;20041;-61
2021/03/02 06:40:11;;;;;;;3.00;1.90;;;21.90;45.10;;;;;;4997222;28;20034;-64
2021/03/02 06:42:42;;;;;;;3.30;1.58;;;21.80;45.00;;;;;;5005124;28;20572;-61
2021/03/02 06:45:10;;;;;;;3.10;1.60;;;21.90;45.00;;;;;;5000361;28;20026;-70
2021/03/02 06:47:41;;;;;;;3.88;1.85;;;21.90;45.90;;;;;;5004463;28;20036;-68
2021/03/02 06:50:13;;;;;;;3.38;2.10;;;22.00;46.10;;;;;;4999460;28;20033;-70
2021/03/02 06:52:44;;;;;;;4.50;2.38;;;22.10;46.00;;;;;;5000543;28;20046;-68
2021/03/02 06:55:16;;;;;;;2.65;1.85;;;22.20;45.40;;;;;;5005842;28;20179;-68
2021/03/02 06:57:49;;;;;;;3.15;1.70;;;22.30;45.00;;;;;;5002404;28;20037;-67
2021/03/02 07:00:30;;;;;;;2.42;1.60;;;22.30;44.90;;;;;;5004755;28;20491;-67
2021/03/02 07:02:56;;;;;;;3.47;1.70;;;22.30;45.00;;;;;;4998164;28;20275;-66
2021/03/02 07:05:21;;;;;;;3.30;2.00;;;22.30;45.00;;;;;;5003425;28;20475;-67
2021/03/02 07:07:54;;;;;;;3.55;2.03;;;22.30;44.90;;;;;;5007698;28;20080;-68
2021/03/02 07:10:21;;;;;;;3.53;1.77;;;22.30;45.40;;;;;;5003448;28;20045;-68
2021/03/02 07:12:47;;;;;;;2.40;1.58;;;22.40;44.90;;;;;;5005225;28;20330;-69
2021/03/02 07:15:17;;;;;;;2.83;1.70;;;22.50;44.70;;;;;;4999817;28;20038;-64
2021/03/02 07:17:44;;;;;;;2.45;1.60;;;22.50;44.60;;;;;;5004416;28;20042;-68
2021/03/02 07:20:12;;;;;;;4.55;1.70;;;22.50;44.60;;;;;;5004490;28;20671;-67
2021/03/02 07:22:45;;;;;;;2.67;1.70;;;22.50;44.60;;;;;;5006355;28;20026;-66
2021/03/02 07:25:13;;;;;;;3.58;2.00;;;22.60;44.70;;;;;;5002127;28;20468;-67
2021/03/02 07:27:43;;;;;;;2.65;1.73;;;22.60;44.80;;;;;;5003772;28;20037;-68
2021/03/02 07:30:11;;;;;;;4.13;1.88;;;22.70;45.00;;;;;;4991451;28;20052;-69
2021/03/02 07:32:39;;;;;;;2.55;1.70;;;22.70;44.40;;;;;;5000890;28;20495;-68
2021/03/02 07:35:07;;;;;;;3.00;1.40;;;22.80;44.40;;;;;;5006566;28;20081;-69
2021/03/02 07:37:33;;;;;;;3.42;1.50;;;22.70;44.30;;;;;;5007436;28;20034;-66
2021/03/02 07:40:07;;;;;;;2.85;1.60;;;22.80;44.40;;;;;;5005865;28;20445;-69
2021/03/02 07:42:33;;;;;;;2.50;1.58;;;22.80;44.50;;;;;;5006240;28;20091;-66
2021/03/02 07:45:18;;;;;;;3.83;2.42;;;22.80;44.40;;;;;;4998705;28;20109;-64
2021/03/02 07:47:53;;;;;;;3.00;1.88;;;22.80;44.50;;;;;;5000366;28;20497;-66
2021/03/02 07:50:24;;;;;;;2.95;1.75;;;23.00;44.30;;;;;;5005963;28;20088;-67
2021/03/02 07:53:16;;;;;;;2.70;1.70;;;23.00;44.20;;;;;;5009050;28;20065;-69
2021/03/02 07:55:42;;;;;;;2.78;1.70;;;23.00;44.10;;;;;;4999514;28;20068;-66
2021/03/02 07:58:19;;;;;;;4.30;1.83;;;23.00;44.10;;;;;;5004131;28;20420;-68
2021/03/02 08:00:50;;;;;;;2.60;1.58;;;23.00;44.10;;;;;;5002750;28;20030;-65
2021/03/02 08:03:25;;;;;;;3.00;1.60;;;23.00;44.20;;;;;;5008527;28;20034;-63
2021/03/02 08:06:21;;;;;;;2.63;1.45;;;23.00;44.10;;;;;;5011314;28;20086;-70
2021/03/02 08:08:47;;;;;;;2.67;1.60;;;23.00;44.20;;;;;;5009812;28;20030;-64
2021/03/02 08:11:33;;;;;;;3.05;1.80;;;23.10;44.10;;;;;;5009618;28;20037;-67
2021/03/02 08:14:22;;;;;;;2.95;1.73;;;23.10;44.10;;;;;;5008919;28;20124;-58
2021/03/02 08:16:55;;;;;;;2.97;1.80;;;23.10;44.20;;;;;;4977991;28;20050;-62
2021/03/02 08:19:31;;;;;;;3.45;1.90;;;23.20;44.10;;;;;;5008132;28;20477;-61
2021/03/02 08:21:56;;;;;;;3.88;2.00;;;23.20;44.20;;;;;;5010503;28;20026;-61
2021/03/02 08:24:53;;;;;;;2.63;1.58;;;23.20;44.00;;;;;;5010348;28;20040;-63
2021/03/02 08:27:39;;;;;;;3.00;1.88;;;23.20;44.00;;;;;;5010180;28;20133;-62
2021/03/02 08:30:13;;;;;;;3.38;1.85;;;23.30;44.00;;;;;;5008861;28;20338;-59
2021/03/02 08:32:41;;;;;;;2.92;1.77;;;23.20;43.80;;;;;;4993183;28;20084;-60
2021/03/02 08:35:12;;;;;;;3.13;1.95;;;23.30;43.80;;;;;;5007059;28;20041;-62
2021/03/02 08:37:47;;;;;;;3.40;2.00;;;23.30;43.80;;;;;;4998862;28;20034;-59
2021/03/02 08:40:35;;;;;;;2.92;1.70;;;23.30;43.80;;;;;;5001931;28;20048;-60
2021/03/02 08:43:04;;;;;;;4.05;1.90;;;23.30;43.80;;;;;;5005564;28;20502;-61
2021/03/02 08:45:39;;;;;;;3.10;1.70;;;23.30;43.80;;;;;;5009152;28;20025;-63
2021/03/02 08:48:32;;;;;;;3.53;1.80;;;23.30;43.90;;;;;;5009081;28;20030;-61
2021/03/02 08:51:02;;;;;;;3.15;1.90;;;23.30;43.90;;;;;;5005709;28;20056;-62
2021/03/02 08:53:36;;;;;;;2.95;1.73;;;23.40;44.00;;;;;;5004758;28;20473;-63
2021/03/02 08:56:04;;;;;;;3.53;1.80;;;23.40;43.90;;;;;;5014938;28;20100;-61
2021/03/02 08:58:34;;;;;;;3.92;1.80;;;23.40;43.80;;;;;;5008784;28;20446;-63
2021/03/02 09:01:11;;;;;;;2.97;1.80;;;23.40;43.80;;;;;;5003932;28;20038;-61
2021/03/02 09:03:38;;;;;;;2.70;1.80;;;23.40;43.80;;;;;;5002305;28;20033;-61
2021/03/02 09:06:24;;;;;;;2.97;1.88;;;23.50;43.80;;;;;;5005917;28;20083;-64
2021/03/02 09:08:57;;;;;;;3.05;1.90;;;23.50;43.70;;;;;;4990842;28;20035;-58
2021/03/02 09:11:34;;;;;;;3.58;2.00;;;23.50;43.70;;;;;;5008101;28;20049;-61
2021/03/02 09:14:03;;;;;;;3.10;1.88;;;23.50;43.70;;;;;;5006929;28;20034;-65
2021/03/02 09:16:37;;;;;;;3.00;2.00;;;23.60;43.70;;;;;;5008220;28;20034;-59
2021/03/02 09:19:11;;;;;;;3.15;1.90;;;23.50;43.70;;;;;;4994670;28;20090;-59
2021/03/02 09:21:39;;;;;;;3.30;1.98;;;23.60;43.70;;;;;;5004649;28;20041;-58
2021/03/02 09:24:06;;;;;;;2.72;2.17;;;23.60;43.80;;;;;;5008404;28;20030;-62
2021/03/02 09:26:32;;;;;;;6.45;2.30;;;23.60;43.80;;;;;;5009261;28;20030;-60
2021/03/02 09:28:59;;;;;;;3.65;2.00;;;23.60;43.80;;;;;;5003956;28;20026;-60
2021/03/02 09:31:26;;;;;;;3.55;2.17;;;23.60;43.80;;;;;;5006448;28;20136;-60
2021/03/02 09:33:52;;;;;;;2.92;1.90;;;23.60;43.80;;;;;;5009557;28;20101;-60
2021/03/02 09:36:18;;;;;;;3.40;1.85;;;23.60;43.80;;;;;;5005395;28;20484;-59
2021/03/02 09:38:45;;;;;;;3.50;2.00;;;23.60;43.80;;;;;;5000835;28;20048;-58
2021/03/02 09:41:11;;;;;;;3.20;2.00;;;23.60;43.80;;;;;;5006648;28;20030;-61
2021/03/02 09:43:40;;;;;;;3.30;1.90;;;23.60;43.80;;;;;;5006736;28;20044;-59
2021/03/02 09:46:07;;;;;;;3.00;2.00;;;23.60;43.80;;;;;;5002724;28;20088;-61
2021/03/02 09:48:46;;;;;;;3.47;1.80;;;23.60;43.80;;;;;;5004380;28;20423;-59
2021/03/02 09:51:44;;;;;;;3.45;2.20;;;23.60;43.80;;;;;;5008379;28;20603;-64
2021/03/02 09:54:11;;;;;;;3.28;1.90;;;23.60;43.80;;;;;;5001670;28;20117;-61
2021/03/02 09:56:36;;;;;;;2.67;1.67;;;23.60;43.80;;;;;;5007820;28;20683;-61
2021/03/02 09:59:03;;;;;;;2.85;1.90;;;23.60;43.80;;;;;;5002097;28;20042;-61
2021/03/02 10:01:29;;;;;;;3.45;1.90;;;23.60;43.70;;;;;;4999117;28;20135;-61
2021/03/02 10:03:54;;;;;;;3.05;1.85;;;23.60;43.80;;;;;;5004429;28;20434;-61
2021/03/02 10:06:26;;;;;;;2.97;1.90;;;23.60;43.70;;;;;;5008762;28;20092;-61
2021/03/02 10:08:52;;;;;;;2.97;1.70;;;23.70;43.80;;;;;;5006462;28;20107;-62
2021/03/02 10:11:21;;;;;;;2.85;1.85;;;23.70;43.80;;;;;;5008155;28;20025;-60
2021/03/02 10:13:54;;;;;;;3.40;1.90;;;23.70;43.80;;;;;;5018788;28;20628;-61
2021/03/02 10:16:38;;;;;;;3.05;1.90;;;23.70;43.80;;;;;;5006137;28;20034;-63
2021/03/02 10:19:16;;;;;;;3.42;1.88;;;23.70;43.80;;;;;;5005980;28;20018;-61
2021/03/02 10:21:46;;;;;;;3.40;1.90;;;23.70;43.80;;;;;;5002242;28;20026;-61
2021/03/02 10:24:36;;;;;;;3.20;2.00;;;23.70;43.80;;;;;;5002203;28;20287;-61
2021/03/02 10:27:16;;;;;;;2.88;1.90;;;23.70;43.80;;;;;;5005066;28;20058;-63
2021/03/02 10:29:43;;;;;;;3.05;1.90;;;23.70;43.80;;;;;;5006815;28;20029;-66
2021/03/02 10:32:09;;;;;;;3.17;1.50;;;23.70;43.80;;;;;;5006266;28;20053;-65
2021/03/02 10:34:38;;;;;;;3.30;1.70;;;23.70;43.80;;;;;;5005938;28;20021;-69
2021/03/02 10:37:05;;;;;;;2.15;1.50;;;23.70;43.80;;;;;;5006592;28;20022;-66
2021/03/02 10:39:31;;;;;;;3.13;1.50;;;23.70;43.70;;;;;;5013441;28;20045;-68
2021/03/02 10:41:58;;;;;;;3.78;1.80;;;23.70;43.80;;;;;;5002671;28;20577;-68
2021/03/02 10:44:23;;;;;;;2.47;1.55;;;23.70;43.80;;;;;;5004569;28;20381;-69
2021/03/02 10:46:49;;;;;;;2.90;1.60;;;23.80;43.80;;;;;;5004893;28;20022;-67
2021/03/02 10:49:15;;;;;;;2.17;1.48;;;23.80;43.80;;;;;;5007241;28;20044;-68
2021/03/02 10:51:41;;;;;;;2.50;1.50;;;23.80;43.80;;;;;;4999558;28;20520;-63
2021/03/02 10:54:08;;;;;;;2.55;1.55;;;23.80;43.80;;;;;;5001226;28;20156;-67
2021/03/02 10:56:34;;;;;;;2.10;1.40;;;23.80;43.80;;;;;;4999132;28;20084;-68
2021/03/02 10:59:00;;;;;;;2.15;1.50;;;23.80;43.90;;;;;;5004488;28;20026;-67
2021/03/02 11:01:25;;;;;;;2.10;1.40;;;23.90;43.90;;;;;;5007029;28;20075;-65
2021/03/02 11:03:52;;;;;;;3.17;1.70;;;23.90;43.90;;;;;;5006111;28;20479;-65
2021/03/02 11:06:20;;;;;;;2.80;1.60;;;23.90;43.90;;;;;;5008384;28;20053;-68
2021/03/02 11:08:48;;;;;;;2.10;1.55;;;23.80;43.80;;;;;;5007477;28;20037;-67
2021/03/02 11:11:14;;;;;;;2.10;1.42;;;23.90;43.90;;;;;;5001798;28;20034;-65
2021/03/02 11:13:41;;;;;;;2.80;1.60;;;23.90;43.90;;;;;;5005988;28;20040;-62
2021/03/02 11:16:07;;;;;;;2.78;1.70;;;23.90;43.90;;;;;;5007822;28;20028;-62
2021/03/02 11:18:34;;;;;;;2.60;1.70;;;23.90;43.90;;;;;;5002835;28;20380;-61
2021/03/02 11:20:59;;;;;;;2.40;1.70;;;23.90;43.80;;;;;;5003055;28;20022;-62
2021/03/02 11:23:25;;;;;;;2.78;1.80;;;23.90;43.80;;;;;;5002112;28;20028;-62
2021/03/02 11:25:51;;;;;;;3.58;2.05;;;23.90;43.80;;;;;;5022106;28;20026;-61
2021/03/02 11:28:17;;;;;;;3.00;1.90;;;23.90;43.80;;;;;;5008315;28;20659;-61
2021/03/02 11:30:43;;;;;;;2.97;1.60;;;23.90;43.80;;;;;;5010037;28;20034;-62
2021/03/02 11:33:10;;;;;;;2.40;1.58;;;23.90;43.80;;;;;;5008807;28;20033;-62
2021/03/02 11:35:36;;;;;;;2.83;1.80;;;23.90;43.80;;;;;;5011351;28;20025;-63
2021/03/02 11:38:03;;;;;;;2.80;1.83;;;23.90;43.80;;;;;;5009946;28;20033;-62
2021/03/02 11:40:29;;;;;;;2.53;1.83;;;23.90;43.70;;;;;;5011321;28;20025;-62
2021/03/02 11:42:56;;;;;;;3.00;1.80;;;23.90;43.70;;;;;;5010309;28;20038;-63
2021/03/02 11:45:23;;;;;;;3.38;1.70;;;23.90;44.20;;;;;;5006318;28;20030;-61
2021/03/02 11:47:50;;;;;;;2.58;1.70;;;23.90;43.60;;;;;;4993196;28;20114;-63
2021/03/02 11:50:17;;;;;;;2.67;1.83;;;23.90;43.60;;;;;;5008604;28;20648;-61
2021/03/02 11:52:43;;;;;;;2.50;1.60;;;23.90;43.60;;;;;;5003606;28;20053;-63
2021/03/02 11:55:10;;;;;;;2.67;1.67;;;24.00;43.70;;;;;;4999192;28;20038;-62
2021/03/02 11:57:36;;;;;;;2.63;1.83;;;24.00;43.70;;;;;;5010538;28;20041;-61
2021/03/02 12:00:03;;;;;;;3.08;1.80;;;24.00;43.60;;;;;;5009081;28;20034;-63
2021/03/02 12:02:28;;;;;;;2.80;1.70;;;24.00;43.60;;;;;;5003681;28;20038;-62
2021/03/02 12:04:54;;;;;;;3.35;1.73;;;24.00;44.10;;;;;;5020072;28;20026;-62
2021/03/02 12:07:21;;;;;;;2.05;1.40;;;24.00;43.60;;;;;;5010894;28;20144;-61
2021/03/02 12:09:47;;;;;;;2.45;1.50;;;24.00;43.50;;;;;;5026104;28;20040;-63
2021/03/02 12:12:13;;;;;;;2.58;1.70;;;24.00;43.50;;;;;;5009208;28;20034;-60
2021/03/02 12:14:39;;;;;;;2.97;1.77;;;24.00;43.50;;;;;;5005216;28;20026;-61
2021/03/02 12:17:04;;;;;;;2.95;1.80;;;24.00;43.50;;;;;;5009531;28;20511;-61
2021/03/02 12:19:30;;;;;;;2.63;1.58;;;24.10;43.60;;;;;;5009924;28;20113;-63
2021/03/02 12:21:57;;;;;;;2.20;1.58;;;24.00;43.50;;;;;;5001210;28;20034;-62
2021/03/02 12:24:22;;;;;;;2.95;1.70;;;24.10;43.60;;;;;;5009499;28;20254;-60
2021/03/02 12:26:48;;;;;;;2.50;1.80;;;24.10;43.60;;;;;;5010144;28;20092;-62
2021/03/02 12:29:15;;;;;;;2.72;1.85;;;24.10;44.10;;;;;;5003977;28;20031;-64
2021/03/02 12:31:42;;;;;;;3.22;1.88;;;24.10;43.60;;;;;;5001773;28;20152;-62
2021/03/02 12:34:08;;;;;;;2.85;1.60;;;24.10;43.60;;;;;;5007019;28;20951;-63
2021/03/02 12:36:34;;;;;;;2.65;1.67;;;24.10;43.70;;;;;;5007497;28;20085;-60
2021/03/02 12:39:00;;;;;;;3.10;1.88;;;24.10;43.80;;;;;;5001637;28;20531;-62
2021/03/02 12:41:25;;;;;;;3.25;1.65;;;24.10;43.70;;;;;;5005354;28;20057;-60
2021/03/02 12:43:51;;;;;;;2.30;1.65;;;24.10;43.60;;;;;;5005106;28;20036;-59
2021/03/02 12:46:17;;;;;;;2.85;1.60;;;24.10;43.60;;;;;;5005456;28;20092;-62
2021/03/02 12:48:47;;;;;;;2.35;1.45;;;24.10;43.60;;;;;;4996472;28;20045;-60
2021/03/02 12:51:14;;;;;;;2.50;1.30;;;24.10;43.60;;;;;;5004609;28;20539;-61
2021/03/02 12:53:40;;;;;;;2.53;1.60;;;24.10;43.70;;;;;;5008328;28;20068;-61
2021/03/02 12:56:06;;;;;;;3.00;1.70;;;24.10;43.60;;;;;;5007243;28;20078;-62